createdAt,value
2018-07-12T00:00:37.134Z,2.70
2018-07-12T00:02:48.394Z,2.63
2018-07-12T00:04:59.712Z,3.83
2018-07-12T00:07:10.938Z,3.50
2018-07-12T00:09:22.190Z,3.50
2018-07-12T00:11:33.436Z,3.03
2018-07-12T00:13:44.658Z,3.97
2018-07-12T00:15:56.062Z,4.33
2018-07-12T00:18:07.274Z,4.13
2018-07-12T00:20:18.510Z,4.07
2018-07-12T00:22:29.761Z,3.77
2018-07-12T00:24:41.084Z,3.70
2018-07-12T00:26:52.365Z,4.57
2018-07-12T00:29:03.583Z,5.03
2018-07-12T00:31:14.802Z,2.97
2018-07-12T00:33:26.024Z,3.37
2018-07-12T00:35:37.239Z,3.43
2018-07-12T00:37:48.520Z,3.43
2018-07-12T00:39:59.775Z,2.87
2018-07-12T00:42:10.985Z,3.13
2018-07-12T00:44:22.226Z,3.07
2018-07-12T00:46:33.483Z,4.83
2018-07-12T00:48:44.742Z,4.43
2018-07-12T00:50:55.997Z,3.70
2018-07-12T00:53:07.311Z,4.50
2018-07-12T00:55:18.557Z,3.87
2018-07-12T00:57:29.955Z,2.97
2018-07-12T00:59:41.355Z,3.20
2018-07-12T01:01:52.662Z,3.47
2018-07-12T01:04:03.950Z,4.73
2018-07-12T01:06:15.175Z,2.90
2018-07-12T01:08:26.408Z,4.40
2018-07-12T01:10:37.642Z,3.83
2018-07-12T01:12:48.966Z,3.40
2018-07-12T01:15:00.269Z,3.10
2018-07-12T01:17:11.486Z,3.50
2018-07-12T01:19:22.742Z,3.10
2018-07-12T01:21:33.979Z,3.47
2018-07-12T01:23:45.274Z,2.80
2018-07-12T01:25:56.573Z,3.77
2018-07-12T01:28:07.825Z,2.90
2018-07-12T01:30:19.037Z,3.57
2018-07-12T01:32:30.271Z,3.03
2018-07-12T01:34:41.519Z,2.87
2018-07-12T01:36:52.735Z,3.67
2018-07-12T01:39:05.071Z,3.00
2018-07-12T01:41:16.423Z,2.87
2018-07-12T01:43:27.665Z,4.03
2018-07-12T01:45:39.003Z,3.47
2018-07-12T01:47:50.353Z,3.77
2018-07-12T01:50:01.619Z,3.17
2018-07-12T01:52:12.855Z,4.10
2018-07-12T01:54:24.078Z,3.00
2018-07-12T01:56:35.414Z,3.10
2018-07-12T01:58:46.638Z,2.80
2018-07-12T02:00:57.944Z,2.80
2018-07-12T02:03:09.181Z,2.80
2018-07-12T02:05:20.439Z,2.53
2018-07-12T02:07:31.650Z,2.90
2018-07-12T02:09:42.891Z,3.27
2018-07-12T02:11:54.149Z,3.10
2018-07-12T02:14:05.369Z,2.73
2018-07-12T02:16:16.656Z,2.93
2018-07-12T02:18:27.902Z,3.20
2018-07-12T02:20:39.180Z,3.53
2018-07-12T02:22:50.434Z,2.90
2018-07-12T02:25:01.758Z,4.93
2018-07-12T02:27:13.030Z,3.50
2018-07-12T02:29:24.329Z,3.27
2018-07-12T02:31:35.639Z,3.23
2018-07-12T02:33:46.874Z,2.77
2018-07-12T02:35:58.198Z,3.07
2018-07-12T02:38:09.472Z,3.47
2018-07-12T02:40:20.700Z,4.10
2018-07-12T02:42:31.969Z,3.70
2018-07-12T02:44:44.537Z,3.47
2018-07-12T02:46:55.898Z,3.70
2018-07-12T02:49:07.193Z,4.10
2018-07-12T02:51:18.423Z,3.90
2018-07-12T02:53:29.690Z,3.13
2018-07-12T02:55:40.909Z,3.57
2018-07-12T02:57:52.150Z,3.07
2018-07-12T03:00:03.380Z,3.07
2018-07-12T03:02:14.647Z,5.03
2018-07-12T03:04:25.977Z,5.83
2018-07-12T03:06:37.257Z,3.00
2018-07-12T03:08:48.546Z,3.50
2018-07-12T03:11:00.004Z,3.50
2018-07-12T03:13:11.230Z,3.67
2018-07-12T03:15:22.458Z,2.87
2018-07-12T03:17:33.811Z,3.90
2018-07-12T03:19:45.094Z,3.90
2018-07-12T03:21:56.378Z,4.20
2018-07-12T03:24:07.607Z,3.07
2018-07-12T03:26:18.878Z,3.33
2018-07-12T03:28:30.133Z,3.50
2018-07-12T03:30:41.417Z,4.63
2018-07-12T03:32:52.727Z,5.43
2018-07-12T03:35:03.942Z,4.00
2018-07-12T03:37:15.320Z,4.10
2018-07-12T03:39:26.786Z,3.53
2018-07-12T03:41:38.011Z,4.43
2018-07-12T03:43:49.330Z,3.73
2018-07-12T03:46:00.604Z,5.50
2018-07-12T03:48:12.002Z,4.47
2018-07-12T03:50:23.357Z,4.17
2018-07-12T03:52:34.718Z,5.03
2018-07-12T03:54:45.944Z,4.33
2018-07-12T03:56:57.189Z,4.20
2018-07-12T03:59:08.426Z,5.97
2018-07-12T04:01:19.839Z,4.57
2018-07-12T04:03:31.085Z,4.10
2018-07-12T04:05:42.301Z,5.83
2018-07-12T04:07:53.570Z,5.57
2018-07-12T04:10:04.805Z,4.77
2018-07-12T04:12:16.167Z,4.43
2018-07-12T04:14:27.454Z,5.07
2018-07-12T04:16:38.687Z,4.90
2018-07-12T04:18:49.981Z,4.87
2018-07-12T04:21:01.284Z,5.80
2018-07-12T04:23:12.539Z,4.07
2018-07-12T04:25:23.836Z,5.07
2018-07-12T04:27:35.082Z,4.07
2018-07-12T04:29:46.855Z,5.10
2018-07-12T04:31:58.105Z,5.00
2018-07-12T04:34:09.365Z,4.90
2018-07-12T04:36:20.736Z,4.87
2018-07-12T04:38:31.995Z,4.00
2018-07-12T04:40:43.243Z,3.80
2018-07-12T04:42:54.507Z,5.37
2018-07-12T04:45:05.748Z,4.50
2018-07-12T04:47:17.027Z,4.50
2018-07-12T04:49:28.293Z,5.33
2018-07-12T04:51:39.512Z,5.63
2018-07-12T04:53:50.729Z,4.97
2018-07-12T04:56:02.004Z,4.80
2018-07-12T04:58:13.308Z,6.07
2018-07-12T05:00:24.610Z,4.00
2018-07-12T05:02:35.839Z,5.50
2018-07-12T05:04:47.098Z,5.17
2018-07-12T05:06:58.452Z,4.73
2018-07-12T05:09:10.581Z,5.60
2018-07-12T05:11:22.590Z,4.70
2018-07-12T05:13:33.947Z,5.20
2018-07-12T05:15:45.194Z,5.07
2018-07-12T05:17:56.410Z,4.50
2018-07-12T05:20:07.643Z,5.83
2018-07-12T05:22:18.908Z,6.03
2018-07-12T05:24:30.246Z,4.60
2018-07-12T05:26:41.525Z,4.80
2018-07-12T05:28:52.730Z,4.03
2018-07-12T05:31:04.330Z,4.80
2018-07-12T05:33:15.595Z,4.80
2018-07-12T05:35:27.919Z,5.50
2018-07-12T05:37:40.439Z,6.47
2018-07-12T05:39:52.802Z,5.67
2018-07-12T05:42:05.271Z,7.23
2018-07-12T05:44:17.698Z,4.53
2018-07-12T05:46:30.039Z,4.80
2018-07-12T05:48:42.559Z,4.80
2018-07-12T05:50:54.954Z,4.77
2018-07-12T05:53:07.438Z,5.07
2018-07-12T05:55:19.810Z,5.00
2018-07-12T05:57:32.252Z,4.80
2018-07-12T05:59:44.619Z,5.87
2018-07-12T06:02:08.533Z,6.43
2018-07-12T06:04:20.910Z,6.47
2018-07-12T06:06:33.327Z,4.47
2018-07-12T06:08:45.830Z,7.90
2018-07-12T06:10:58.339Z,4.80
2018-07-12T06:13:10.740Z,5.73
2018-07-12T06:15:23.121Z,5.53
2018-07-12T06:17:35.478Z,6.00
2018-07-12T06:19:47.954Z,7.00
2018-07-12T06:22:00.423Z,7.30
2018-07-12T06:24:12.794Z,7.90
2018-07-12T06:26:25.152Z,8.73
2018-07-12T06:28:37.649Z,9.00
2018-07-12T06:30:50.024Z,10.53
2018-07-12T06:33:02.398Z,9.43
2018-07-12T06:35:14.918Z,9.40
2018-07-12T06:37:27.310Z,13.13
2018-07-12T06:39:39.740Z,10.67
2018-07-12T06:41:52.069Z,12.23
2018-07-12T06:44:04.496Z,11.60
2018-07-12T06:46:16.902Z,11.30
2018-07-12T06:48:29.278Z,9.73
2018-07-12T06:50:41.651Z,10.03
2018-07-12T06:52:54.076Z,13.20
2018-07-12T06:55:10.767Z,11.93
2018-07-12T06:57:23.246Z,12.60
2018-07-12T06:59:35.610Z,10.23
2018-07-12T07:01:48.019Z,13.07
2018-07-12T07:04:00.355Z,13.63
2018-07-12T07:06:12.771Z,10.57
2018-07-12T07:08:25.154Z,13.47
2018-07-12T07:10:37.511Z,9.20
2018-07-12T07:12:49.925Z,12.73
2018-07-12T07:15:02.261Z,8.03
2018-07-12T07:17:14.657Z,12.03
2018-07-12T07:19:27.026Z,13.23
2018-07-12T07:21:39.452Z,11.53
2018-07-12T07:23:51.843Z,10.77
2018-07-12T07:26:04.246Z,12.53
2018-07-12T07:28:16.842Z,11.37
2018-07-12T07:30:29.230Z,13.03
2018-07-12T07:32:41.682Z,12.63
2018-07-12T07:34:54.127Z,8.27
2018-07-12T07:37:06.651Z,11.57
2018-07-12T07:39:19.058Z,13.13
2018-07-12T07:41:31.430Z,13.33
2018-07-12T07:43:44.022Z,10.17
2018-07-12T07:45:56.538Z,11.83
2018-07-12T07:48:09.139Z,10.47
2018-07-12T07:50:21.498Z,12.20
2018-07-12T07:52:33.839Z,11.77
2018-07-12T07:54:46.345Z,8.77
2018-07-12T07:56:58.727Z,9.20
2018-07-12T07:59:11.149Z,9.90
2018-07-12T08:01:23.665Z,9.43
2018-07-12T08:03:36.082Z,9.60
2018-07-12T08:05:48.647Z,9.07
2018-07-12T08:08:01.023Z,9.60
2018-07-12T08:10:13.856Z,8.77
2018-07-12T08:12:26.225Z,10.33
2018-07-12T08:14:38.723Z,11.53
2018-07-12T08:16:51.167Z,10.97
2018-07-12T08:19:03.591Z,9.80
2018-07-12T08:21:16.123Z,10.73
2018-07-12T08:23:28.598Z,11.17
2018-07-12T08:25:40.974Z,14.90
2018-07-12T08:28:04.634Z,9.57
2018-07-12T08:30:17.007Z,13.07
2018-07-12T08:32:29.414Z,10.90
2018-07-12T08:34:41.834Z,11.80
2018-07-12T08:37:01.085Z,11.37
2018-07-12T08:39:13.541Z,10.33
2018-07-12T08:41:25.879Z,11.07
2018-07-12T08:43:38.259Z,11.50
2018-07-12T08:45:52.502Z,11.23
2018-07-12T08:48:05.229Z,11.53
2018-07-12T08:50:17.618Z,11.07
2018-07-12T08:52:29.998Z,10.27
2018-07-12T08:54:42.374Z,12.70
2018-07-12T08:56:54.754Z,9.47
2018-07-12T08:59:07.219Z,11.07
2018-07-12T09:01:19.632Z,19.57
2018-07-12T09:03:32.023Z,11.10
2018-07-12T09:05:44.406Z,10.83
2018-07-12T09:07:56.776Z,9.43
2018-07-12T09:10:09.162Z,9.07
2018-07-12T09:12:21.565Z,9.77
2018-07-12T09:14:33.919Z,9.73
2018-07-12T09:16:46.289Z,8.10
2018-07-12T09:18:58.862Z,8.23
2018-07-12T09:21:11.275Z,9.33
2018-07-12T09:23:23.844Z,9.00
2018-07-12T09:25:36.372Z,8.20
2018-07-12T09:27:48.807Z,7.77
2018-07-12T09:30:01.138Z,7.83
2018-07-12T09:32:13.576Z,7.50
2018-07-12T09:34:25.974Z,8.77
2018-07-12T09:36:38.343Z,7.20
2018-07-12T09:38:51.603Z,7.53
2018-07-12T09:41:04.127Z,7.40
2018-07-12T09:43:16.568Z,7.80
2018-07-12T09:45:29.041Z,6.83
2018-07-12T09:47:41.513Z,7.37
2018-07-12T09:49:53.875Z,5.90
2018-07-12T09:52:11.981Z,7.03
2018-07-12T09:54:24.383Z,6.80
2018-07-12T09:56:48.159Z,6.50
2018-07-12T09:59:00.561Z,6.47
2018-07-12T10:01:18.522Z,7.77
2018-07-12T10:03:36.523Z,7.77
2018-07-12T10:05:54.432Z,7.20
2018-07-12T10:08:12.610Z,7.07
2018-07-12T10:10:30.418Z,5.93
2018-07-12T10:12:48.371Z,8.07
2018-07-12T10:15:06.370Z,7.33
2018-07-12T10:17:24.258Z,7.40
2018-07-12T10:19:36.617Z,5.23
2018-07-12T10:21:49.011Z,5.33
2018-07-12T10:24:01.374Z,6.17
2018-07-12T10:26:13.838Z,5.60
2018-07-12T10:28:26.214Z,5.40
2018-07-12T10:30:38.565Z,5.70
2018-07-12T10:32:51.049Z,5.73
2018-07-12T10:35:03.474Z,5.03
2018-07-12T10:37:15.958Z,6.17
2018-07-12T10:39:28.310Z,8.87
2018-07-12T10:41:40.729Z,6.00
2018-07-12T10:43:53.119Z,6.87
2018-07-12T10:46:05.679Z,7.83
2018-07-12T10:48:18.061Z,5.90
2018-07-12T10:50:30.538Z,7.67
2018-07-12T10:52:42.971Z,7.30
2018-07-12T10:54:55.307Z,5.70
2018-07-12T10:57:07.687Z,4.27
2018-07-12T10:59:20.105Z,5.33
2018-07-12T11:01:32.537Z,7.60
2018-07-12T11:03:44.920Z,5.07
2018-07-12T11:05:57.358Z,4.83
2018-07-12T11:08:09.776Z,5.63
2018-07-12T11:10:22.238Z,6.00
2018-07-12T11:12:34.599Z,5.73
2018-07-12T11:14:47.003Z,6.77
2018-07-12T11:16:59.422Z,6.07
2018-07-12T11:19:11.809Z,7.70
2018-07-12T11:21:24.274Z,5.57
2018-07-12T11:23:36.665Z,6.20
2018-07-12T11:25:49.135Z,5.33
2018-07-12T11:28:02.022Z,4.93
2018-07-12T11:30:14.448Z,4.97
2018-07-12T11:32:26.923Z,5.13
2018-07-12T11:34:39.339Z,6.77
2018-07-12T11:36:52.054Z,4.07
2018-07-12T11:39:06.578Z,5.70
2018-07-12T11:41:18.927Z,4.50
2018-07-12T11:43:31.353Z,5.30
2018-07-12T11:45:44.519Z,4.13
2018-07-12T11:47:56.983Z,4.27
2018-07-12T11:50:09.410Z,5.50
2018-07-12T11:52:21.827Z,4.37
2018-07-12T11:54:34.319Z,4.50
2018-07-12T11:56:46.770Z,5.60
2018-07-12T11:58:59.158Z,6.33
2018-07-12T12:01:12.372Z,6.90
2018-07-12T12:03:25.310Z,5.37
2018-07-12T12:05:37.741Z,5.83
2018-07-12T12:07:50.130Z,7.77
2018-07-12T12:10:02.623Z,10.97
2018-07-12T12:12:15.070Z,4.93
2018-07-12T12:14:27.455Z,6.63
2018-07-12T12:16:39.806Z,9.67
2018-07-12T12:18:52.162Z,5.80
2018-07-12T12:21:04.654Z,5.10
2018-07-12T12:23:17.051Z,4.83
2018-07-12T12:25:29.414Z,4.80
2018-07-12T12:27:41.950Z,7.20
2018-07-12T12:29:54.341Z,11.17
2018-07-12T12:32:06.767Z,5.20
2018-07-12T12:34:19.163Z,4.90
2018-07-12T12:36:31.613Z,4.60
2018-07-12T12:38:43.988Z,4.63
2018-07-12T12:40:56.450Z,4.50
2018-07-12T12:43:08.797Z,4.73
2018-07-12T12:45:21.274Z,3.87
2018-07-12T12:47:33.747Z,3.67
2018-07-12T12:49:46.266Z,5.53
2018-07-12T12:51:58.690Z,4.10
2018-07-12T12:54:11.211Z,3.77
2018-07-12T12:56:23.607Z,3.70
2018-07-12T12:58:36.003Z,4.00
2018-07-12T13:00:48.502Z,4.00
2018-07-12T13:03:00.868Z,3.67
2018-07-12T13:05:13.211Z,4.20
2018-07-12T13:07:25.614Z,3.93
2018-07-12T13:09:38.278Z,3.77
2018-07-12T13:11:50.679Z,5.00
2018-07-12T13:14:03.143Z,3.67
2018-07-12T13:16:15.755Z,3.77
2018-07-12T13:18:28.198Z,3.63
2018-07-12T13:20:40.624Z,5.10
2018-07-12T13:22:56.087Z,4.23
2018-07-12T13:25:08.553Z,3.73
2018-07-12T13:27:20.966Z,2.93
2018-07-12T13:29:34.226Z,3.10
2018-07-12T13:31:46.649Z,3.17
2018-07-12T13:33:59.069Z,3.13
2018-07-12T13:36:11.431Z,3.37
2018-07-12T13:38:23.852Z,3.20
2018-07-12T13:40:36.218Z,2.87
2018-07-12T13:42:48.670Z,3.00
2018-07-12T13:45:02.068Z,3.20
2018-07-12T13:47:14.651Z,3.60
2018-07-12T13:49:27.066Z,3.70
2018-07-12T13:51:39.442Z,3.70
2018-07-12T13:53:55.640Z,3.30
2018-07-12T13:56:08.015Z,3.43
2018-07-12T13:58:20.409Z,4.00
2018-07-12T14:00:32.997Z,3.50
2018-07-12T14:02:45.378Z,3.23
2018-07-12T14:04:57.848Z,3.77
2018-07-12T14:07:10.178Z,3.83
2018-07-12T14:09:22.529Z,4.23
2018-07-12T14:11:35.054Z,2.97
2018-07-12T14:13:47.682Z,2.50
2018-07-12T14:16:00.230Z,3.00
2018-07-12T14:18:13.542Z,3.40
2018-07-12T14:20:28.865Z,3.47
2018-07-12T14:22:42.332Z,2.73
2018-07-12T14:24:54.701Z,3.43
2018-07-12T14:27:07.178Z,3.53
2018-07-12T14:29:19.588Z,2.57
2018-07-12T14:31:32.092Z,3.23
2018-07-12T14:33:44.441Z,2.67
2018-07-12T14:35:56.866Z,4.00
2018-07-12T14:38:09.251Z,2.83
2018-07-12T14:40:21.625Z,2.47
2018-07-12T14:42:34.966Z,3.03
2018-07-12T14:44:48.272Z,2.83
2018-07-12T14:47:00.932Z,4.00
2018-07-12T14:49:13.377Z,2.73
2018-07-12T14:51:25.735Z,3.60
2018-07-12T14:53:38.199Z,2.90
2018-07-12T14:55:50.575Z,2.40
2018-07-12T14:58:03.002Z,2.50
2018-07-12T15:00:15.533Z,2.80
2018-07-12T15:02:27.988Z,2.63
2018-07-12T15:04:40.394Z,2.80
2018-07-12T15:06:52.775Z,2.70
2018-07-12T15:09:07.284Z,3.63
2018-07-12T15:11:20.432Z,2.93
2018-07-12T15:13:32.930Z,3.47
2018-07-12T15:15:45.509Z,2.93
2018-07-12T15:17:58.129Z,2.43
2018-07-12T15:20:10.623Z,3.10
2018-07-12T15:22:22.999Z,2.30
2018-07-12T15:24:35.430Z,1.67
2018-07-12T15:26:47.891Z,2.63
2018-07-12T15:29:01.096Z,2.73
2018-07-12T15:31:13.538Z,1.70
2018-07-12T15:33:25.883Z,2.90
2018-07-12T15:35:38.340Z,1.77
2018-07-12T15:37:50.671Z,2.77
2018-07-12T15:40:03.196Z,3.23
2018-07-12T15:42:15.515Z,1.93
2018-07-12T15:44:27.888Z,2.37
2018-07-12T15:46:40.463Z,3.10
2018-07-12T15:48:52.834Z,2.93
2018-07-12T15:51:05.415Z,2.07
2018-07-12T15:53:17.756Z,2.37
2018-07-12T15:55:30.085Z,2.60
2018-07-12T15:57:42.557Z,3.43
2018-07-12T15:59:54.974Z,2.13
2018-07-12T16:02:07.559Z,2.20
2018-07-12T16:04:19.962Z,2.23
2018-07-12T16:06:32.377Z,2.27
2018-07-12T16:08:44.754Z,2.37
2018-07-12T16:10:57.210Z,1.67
2018-07-12T16:13:09.663Z,2.30
2018-07-12T16:15:22.110Z,2.10
2018-07-12T16:17:34.580Z,3.43
2018-07-12T16:19:47.003Z,2.73
2018-07-12T16:21:59.397Z,1.73
2018-07-12T16:24:11.882Z,1.90
2018-07-12T16:26:24.332Z,1.90
2018-07-12T16:28:36.727Z,1.83
2018-07-12T16:30:49.137Z,1.90
2018-07-12T16:33:01.543Z,2.17
2018-07-12T16:35:13.943Z,1.60
2018-07-12T16:37:26.404Z,1.90
2018-07-12T16:39:39.003Z,1.80
2018-07-12T16:41:51.492Z,1.93
2018-07-12T16:44:03.987Z,1.87
2018-07-12T16:46:16.481Z,2.50
2018-07-12T16:48:28.906Z,1.83
2018-07-12T16:50:41.308Z,1.40
2018-07-12T16:52:53.684Z,2.20
2018-07-12T16:55:06.147Z,1.70
2018-07-12T16:57:18.592Z,2.43
2018-07-12T16:59:30.958Z,2.20
2018-07-12T17:01:43.419Z,1.70
2018-07-12T17:03:55.837Z,2.13
2018-07-12T17:06:08.249Z,1.60
2018-07-12T17:08:20.618Z,1.30
2018-07-12T17:10:33.031Z,2.00
2018-07-12T17:12:45.514Z,2.03
2018-07-12T17:14:57.934Z,1.70
2018-07-12T17:17:10.371Z,1.87
2018-07-12T17:19:22.747Z,1.77
2018-07-12T17:21:35.147Z,1.90
2018-07-12T17:23:47.623Z,2.03
2018-07-12T17:25:59.966Z,1.60
2018-07-12T17:28:12.347Z,1.90
2018-07-12T17:30:24.756Z,2.30
2018-07-12T17:32:37.153Z,2.23
2018-07-12T17:34:49.525Z,2.20
2018-07-12T17:37:01.945Z,2.20
2018-07-12T17:39:14.318Z,1.87
2018-07-12T17:41:26.820Z,2.10
2018-07-12T17:43:39.263Z,2.13
2018-07-12T17:45:51.635Z,1.97
2018-07-12T17:48:04.235Z,2.90
2018-07-12T17:50:16.751Z,2.10
2018-07-12T17:52:29.141Z,2.17
2018-07-12T17:54:41.541Z,3.20
2018-07-12T17:56:53.903Z,4.27
2018-07-12T17:59:06.424Z,2.40
2018-07-12T18:01:52.775Z,1.70
2018-07-12T18:04:05.413Z,2.80
2018-07-12T18:06:17.878Z,2.67
2018-07-12T18:08:30.531Z,2.07
2018-07-12T18:10:42.975Z,1.90
2018-07-12T18:12:55.385Z,2.17
2018-07-12T18:15:07.783Z,1.97
2018-07-12T18:17:20.208Z,2.43
2018-07-12T18:19:32.639Z,2.27
2018-07-12T18:21:45.050Z,2.70
2018-07-12T18:23:57.422Z,2.40
2018-07-12T18:26:09.886Z,2.57
2018-07-12T18:28:22.283Z,2.10
2018-07-12T18:30:34.681Z,2.10
2018-07-12T18:32:47.075Z,2.43
2018-07-12T18:34:59.450Z,2.50
2018-07-12T18:37:11.925Z,2.40
2018-07-12T18:39:24.265Z,2.80
2018-07-12T18:41:37.040Z,2.20
2018-07-12T18:43:49.635Z,5.60
2018-07-12T18:46:02.117Z,2.20
2018-07-12T18:48:14.520Z,4.07
2018-07-12T18:50:26.891Z,2.70
2018-07-12T18:52:39.374Z,2.57
2018-07-12T18:54:51.878Z,2.30
2018-07-12T18:57:05.534Z,2.63
2018-07-12T18:59:17.886Z,2.70
2018-07-12T19:01:30.307Z,2.97
2018-07-12T19:03:42.962Z,2.70
2018-07-12T19:05:55.328Z,2.10
2018-07-12T19:08:07.859Z,3.77
2018-07-12T19:10:20.203Z,3.20
2018-07-12T19:12:32.623Z,2.47
2018-07-12T19:14:45.414Z,3.37
2018-07-12T19:16:57.770Z,3.10
2018-07-12T19:19:11.171Z,3.20
2018-07-12T19:21:23.618Z,4.37
2018-07-12T19:23:36.057Z,3.87
2018-07-12T19:25:48.587Z,3.27
2018-07-12T19:28:01.032Z,3.67
2018-07-12T19:30:13.613Z,3.53
2018-07-12T19:32:25.967Z,3.00
2018-07-12T19:34:38.473Z,4.20
2018-07-12T19:36:50.861Z,2.70
2018-07-12T19:39:04.568Z,4.83
2018-07-12T19:41:16.978Z,3.30
2018-07-12T19:43:29.473Z,2.63
2018-07-12T19:45:41.890Z,4.33
2018-07-12T19:47:54.281Z,4.50
2018-07-12T19:50:06.661Z,5.07
2018-07-12T19:52:19.062Z,3.30
2018-07-12T19:54:31.478Z,2.87
2018-07-12T19:56:43.922Z,3.93
2018-07-12T19:58:56.347Z,3.47
2018-07-12T20:01:08.788Z,2.90
2018-07-12T20:03:21.264Z,2.70
2018-07-12T20:05:33.647Z,2.97
2018-07-12T20:07:46.177Z,3.43
2018-07-12T20:09:58.543Z,3.73
2018-07-12T20:12:10.929Z,2.83
2018-07-12T20:14:23.488Z,2.57
2018-07-12T20:16:35.972Z,3.10
2018-07-12T20:18:48.405Z,3.80
2018-07-12T20:21:00.838Z,3.43
2018-07-12T20:23:13.370Z,3.23
2018-07-12T20:25:25.831Z,3.70
2018-07-12T20:27:39.202Z,3.40
2018-07-12T20:29:51.628Z,3.63
2018-07-12T20:32:04.180Z,2.93
2018-07-12T20:34:16.554Z,5.80
2018-07-12T20:36:28.927Z,8.30
2018-07-12T20:38:41.607Z,4.60
2018-07-12T20:40:54.045Z,3.20
2018-07-12T20:43:06.542Z,3.17
2018-07-12T20:45:18.955Z,3.23
2018-07-12T20:47:31.458Z,3.40
2018-07-12T20:49:43.959Z,3.17
2018-07-12T20:51:56.357Z,3.50
2018-07-12T20:54:08.790Z,3.60
2018-07-12T20:56:21.162Z,3.07
2018-07-12T20:58:33.555Z,3.57
2018-07-12T21:00:46.006Z,3.80
2018-07-12T21:02:58.436Z,3.90
2018-07-12T21:05:10.968Z,3.57
2018-07-12T21:07:23.473Z,3.60
2018-07-12T21:09:35.826Z,4.03
2018-07-12T21:11:48.223Z,3.90
2018-07-12T21:14:00.674Z,3.97
2018-07-12T21:16:13.065Z,4.50
2018-07-12T21:18:25.548Z,4.37
2018-07-12T21:20:38.074Z,3.87
2018-07-12T21:22:50.470Z,3.80
2018-07-12T21:25:02.979Z,4.53
2018-07-12T21:27:15.358Z,4.10
2018-07-12T21:29:27.786Z,4.13
2018-07-12T21:31:40.185Z,4.00
2018-07-12T21:33:52.534Z,4.00
2018-07-12T21:36:05.244Z,4.60
2018-07-12T21:38:17.864Z,3.20
2018-07-12T21:40:30.307Z,5.27
2018-07-12T21:42:42.678Z,3.80
2018-07-12T21:44:55.096Z,5.23
2018-07-12T21:47:07.510Z,4.03
2018-07-12T21:49:19.874Z,3.53
2018-07-12T21:51:32.375Z,3.70
2018-07-12T21:53:44.766Z,4.10
2018-07-12T21:55:57.360Z,4.20
2018-07-12T21:58:09.754Z,4.10
2018-07-12T22:00:22.233Z,3.50
2018-07-12T22:02:34.671Z,3.70
2018-07-12T22:04:47.014Z,5.57
2018-07-12T22:08:09.514Z,4.10
2018-07-12T22:10:21.933Z,4.93
2018-07-12T22:12:34.425Z,3.73
2018-07-12T22:14:46.829Z,4.20
2018-07-12T22:16:59.399Z,3.80
2018-07-12T22:19:11.747Z,3.63
2018-07-12T22:21:24.371Z,3.70
2018-07-12T22:23:36.699Z,3.97
2018-07-12T22:25:49.119Z,4.00
2018-07-12T22:28:01.598Z,4.40
2018-07-12T22:30:14.013Z,4.67
2018-07-12T22:32:26.374Z,6.30
2018-07-12T22:34:38.851Z,8.30
2018-07-12T22:36:51.337Z,6.70
2018-07-12T22:39:04.417Z,3.70
2018-07-12T22:41:16.791Z,3.43
2018-07-12T22:43:29.186Z,3.83
2018-07-12T22:45:41.582Z,4.07
2018-07-12T22:47:54.192Z,4.07
2018-07-12T22:50:06.638Z,5.10
2018-07-12T22:52:20.693Z,3.73
2018-07-12T22:54:33.607Z,4.93
2018-07-12T22:56:45.926Z,3.93
2018-07-12T22:58:58.298Z,3.77
2018-07-12T23:01:10.663Z,4.10
2018-07-12T23:03:23.038Z,3.20
2018-07-12T23:05:35.499Z,3.73
2018-07-12T23:07:47.843Z,3.70
2018-07-12T23:10:00.406Z,3.47
2018-07-12T23:12:12.793Z,5.13
2018-07-12T23:14:25.183Z,4.00
2018-07-12T23:16:37.568Z,4.10
2018-07-12T23:18:49.941Z,5.00
2018-07-12T23:21:02.325Z,4.20
2018-07-12T23:23:14.672Z,4.57
2018-07-12T23:25:27.240Z,4.60
2018-07-12T23:27:39.620Z,5.90
2018-07-12T23:29:52.375Z,4.40
2018-07-12T23:32:04.792Z,4.33
2018-07-12T23:34:17.162Z,4.80
2018-07-12T23:36:29.500Z,4.20
2018-07-12T23:38:41.902Z,4.93
2018-07-12T23:40:54.274Z,4.17
2018-07-12T23:43:06.709Z,4.33
2018-07-12T23:45:19.052Z,4.67
2018-07-12T23:47:31.431Z,4.50
2018-07-12T23:49:43.807Z,4.50
2018-07-12T23:51:56.239Z,4.27
2018-07-12T23:54:08.618Z,4.90
2018-07-12T23:56:20.962Z,5.03
2018-07-12T23:58:33.371Z,4.93
